sensor_id;sensor_type;location;lat;lon;timestamp;temperature;humidity
69393;SHT31;56582;44.624;20.378;2023-12-29T00:00:02;7.37;84.16
69393;SHT31;56582;44.624;20.378;2023-12-29T00:02:28;7.47;84.05
69393;SHT31;56582;44.624;20.378;2023-12-29T00:04:54;7.31;83.89
69393;SHT31;56582;44.624;20.378;2023-12-29T00:07:22;7.28;84.01
69393;SHT31;56582;44.624;20.378;2023-12-29T00:09:50;7.20;84.33
69393;SHT31;56582;44.624;20.378;2023-12-29T00:12:15;7.17;84.78
69393;SHT31;56582;44.624;20.378;2023-12-29T00:14:41;7.16;84.70
69393;SHT31;56582;44.624;20.378;2023-12-29T00:17:07;7.20;84.51
69393;SHT31;56582;44.624;20.378;2023-12-29T00:19:33;7.28;84.69
69393;SHT31;56582;44.624;20.378;2023-12-29T00:21:58;7.28;84.34
69393;SHT31;56582;44.624;20.378;2023-12-29T00:24:26;7.34;84.45
69393;SHT31;56582;44.624;20.378;2023-12-29T00:26:51;7.37;84.15
69393;SHT31;56582;44.624;20.378;2023-12-29T00:29:17;7.30;83.98
69393;SHT31;56582;44.624;20.378;2023-12-29T00:31:42;7.36;83.59
69393;SHT31;56582;44.624;20.378;2023-12-29T00:34:08;7.28;83.65
69393;SHT31;56582;44.624;20.378;2023-12-29T00:36:34;7.26;84.21
69393;SHT31;56582;44.624;20.378;2023-12-29T00:38:59;7.36;83.76
69393;SHT31;56582;44.624;20.378;2023-12-29T00:41:25;7.27;83.86
69393;SHT31;56582;44.624;20.378;2023-12-29T00:43:50;7.10;84.55
69393;SHT31;56582;44.624;20.378;2023-12-29T00:46:16;6.88;85.17
69393;SHT31;56582;44.624;20.378;2023-12-29T00:48:41;6.96;84.88
69393;SHT31;56582;44.624;20.378;2023-12-29T00:51:07;7.00;85.21
69393;SHT31;56582;44.624;20.378;2023-12-29T00:53:34;7.17;84.58
69393;SHT31;56582;44.624;20.378;2023-12-29T00:56:00;7.24;84.41
69393;SHT31;56582;44.624;20.378;2023-12-29T00:58:26;7.12;84.13
69393;SHT31;56582;44.624;20.378;2023-12-29T01:00:54;7.09;84.68
69393;SHT31;56582;44.624;20.378;2023-12-29T01:03:20;7.10;84.79
69393;SHT31;56582;44.624;20.378;2023-12-29T01:05:46;6.92;84.91
69393;SHT31;56582;44.624;20.378;2023-12-29T01:08:11;6.99;85.03
69393;SHT31;56582;44.624;20.378;2023-12-29T01:10:37;7.07;84.93
69393;SHT31;56582;44.624;20.378;2023-12-29T01:13:03;6.95;85.22
69393;SHT31;56582;44.624;20.378;2023-12-29T01:15:29;6.99;85.13
69393;SHT31;56582;44.624;20.378;2023-12-29T01:17:54;7.02;84.97
69393;SHT31;56582;44.624;20.378;2023-12-29T01:20:19;6.84;85.06
69393;SHT31;56582;44.624;20.378;2023-12-29T01:22:45;6.75;85.61
69393;SHT31;56582;44.624;20.378;2023-12-29T01:25:11;6.89;85.48
69393;SHT31;56582;44.624;20.378;2023-12-29T01:27:36;6.78;85.60
69393;SHT31;56582;44.624;20.378;2023-12-29T01:30:02;6.91;85.63
69393;SHT31;56582;44.624;20.378;2023-12-29T01:32:27;6.84;85.10
69393;SHT31;56582;44.624;20.378;2023-12-29T01:34:53;6.71;86.20
69393;SHT31;56582;44.624;20.378;2023-12-29T01:37:18;6.84;85.67
69393;SHT31;56582;44.624;20.378;2023-12-29T01:39:44;6.79;85.65
69393;SHT31;56582;44.624;20.378;2023-12-29T01:42:09;6.92;85.13
69393;SHT31;56582;44.624;20.378;2023-12-29T01:44:36;6.82;85.59
69393;SHT31;56582;44.624;20.378;2023-12-29T01:47:04;6.89;85.28
69393;SHT31;56582;44.624;20.378;2023-12-29T01:49:33;6.75;85.25
69393;SHT31;56582;44.624;20.378;2023-12-29T01:52:00;6.82;85.71
69393;SHT31;56582;44.624;20.378;2023-12-29T01:54:30;6.96;85.23
69393;SHT31;56582;44.624;20.378;2023-12-29T01:56:57;7.13;85.02
69393;SHT31;56582;44.624;20.378;2023-12-29T01:59:25;7.22;84.73
69393;SHT31;56582;44.624;20.378;2023-12-29T02:01:50;7.24;84.34
69393;SHT31;56582;44.624;20.378;2023-12-29T02:04:17;7.15;84.42
69393;SHT31;56582;44.624;20.378;2023-12-29T02:06:43;7.10;84.62
69393;SHT31;56582;44.624;20.378;2023-12-29T02:09:08;7.09;84.90
69393;SHT31;56582;44.624;20.378;2023-12-29T02:11:34;6.92;85.15
69393;SHT31;56582;44.624;20.378;2023-12-29T02:14:00;7.06;84.68
69393;SHT31;56582;44.624;20.378;2023-12-29T02:18:59;7.27;83.94
69393;SHT31;56582;44.624;20.378;2023-12-29T02:21:27;7.40;83.82
69393;SHT31;56582;44.624;20.378;2023-12-29T02:23:52;7.22;83.74
69393;SHT31;56582;44.624;20.378;2023-12-29T02:26:20;7.12;84.02
69393;SHT31;56582;44.624;20.378;2023-12-29T02:28:54;6.96;84.89
69393;SHT31;56582;44.624;20.378;2023-12-29T02:31:24;6.79;85.41
69393;SHT31;56582;44.624;20.378;2023-12-29T02:33:52;7.03;84.72
69393;SHT31;56582;44.624;20.378;2023-12-29T02:36:19;6.97;85.00
69393;SHT31;56582;44.624;20.378;2023-12-29T02:38:45;7.05;84.53
69393;SHT31;56582;44.624;20.378;2023-12-29T02:41:11;7.00;84.40
69393;SHT31;56582;44.624;20.378;2023-12-29T02:43:38;7.12;84.31
69393;SHT31;56582;44.624;20.378;2023-12-29T02:46:04;7.16;84.03
69393;SHT31;56582;44.624;20.378;2023-12-29T02:48:29;7.10;84.12
69393;SHT31;56582;44.624;20.378;2023-12-29T02:50:55;6.89;84.49
69393;SHT31;56582;44.624;20.378;2023-12-29T02:53:20;6.88;84.78
69393;SHT31;56582;44.624;20.378;2023-12-29T02:55:46;6.85;85.26
69393;SHT31;56582;44.624;20.378;2023-12-29T02:58:11;7.00;84.74
69393;SHT31;56582;44.624;20.378;2023-12-29T03:00:37;7.16;84.04
69393;SHT31;56582;44.624;20.378;2023-12-29T03:03:02;7.24;83.61
69393;SHT31;56582;44.624;20.378;2023-12-29T03:05:28;7.36;83.24
69393;SHT31;56582;44.624;20.378;2023-12-29T03:07:53;7.17;83.51
69393;SHT31;56582;44.624;20.378;2023-12-29T03:10:19;7.02;84.38
69393;SHT31;56582;44.624;20.378;2023-12-29T03:12:44;6.92;84.92
69393;SHT31;56582;44.624;20.378;2023-12-29T03:15:10;7.07;84.42
69393;SHT31;56582;44.624;20.378;2023-12-29T03:17:35;7.05;84.39
69393;SHT31;56582;44.624;20.378;2023-12-29T03:20:02;6.71;85.00
69393;SHT31;56582;44.624;20.378;2023-12-29T03:22:28;6.85;85.06
69393;SHT31;56582;44.624;20.378;2023-12-29T03:24:53;6.91;84.84
69393;SHT31;56582;44.624;20.378;2023-12-29T03:27:19;6.99;84.63
69393;SHT31;56582;44.624;20.378;2023-12-29T03:29:44;6.88;84.69
69393;SHT31;56582;44.624;20.378;2023-12-29T03:32:10;6.85;84.76
69393;SHT31;56582;44.624;20.378;2023-12-29T03:34:36;6.95;84.53
69393;SHT31;56582;44.624;20.378;2023-12-29T03:37:04;7.12;84.24
69393;SHT31;56582;44.624;20.378;2023-12-29T03:39:29;6.92;84.17
69393;SHT31;56582;44.624;20.378;2023-12-29T03:41:55;6.65;85.18
69393;SHT31;56582;44.624;20.378;2023-12-29T03:44:20;6.78;85.26
69393;SHT31;56582;44.624;20.378;2023-12-29T03:46:46;6.86;85.00
69393;SHT31;56582;44.624;20.378;2023-12-29T03:49:12;6.76;84.89
69393;SHT31;56582;44.624;20.378;2023-12-29T03:51:38;6.84;84.61
69393;SHT31;56582;44.624;20.378;2023-12-29T03:54:03;6.52;85.19
69393;SHT31;56582;44.624;20.378;2023-12-29T03:56:29;6.57;85.51
69393;SHT31;56582;44.624;20.378;2023-12-29T03:58:54;6.75;86.77
69393;SHT31;56582;44.624;20.378;2023-12-29T04:01:20;6.74;86.17
69393;SHT31;56582;44.624;20.378;2023-12-29T04:03:46;6.68;85.92
69393;SHT31;56582;44.624;20.378;2023-12-29T04:06:11;6.58;85.70
69393;SHT31;56582;44.624;20.378;2023-12-29T04:08:37;6.59;85.48
69393;SHT31;56582;44.624;20.378;2023-12-29T04:11:06;6.79;85.20
69393;SHT31;56582;44.624;20.378;2023-12-29T04:13:32;6.78;85.01
69393;SHT31;56582;44.624;20.378;2023-12-29T04:15:57;6.86;85.03
69393;SHT31;56582;44.624;20.378;2023-12-29T04:18:24;6.91;84.86
69393;SHT31;56582;44.624;20.378;2023-12-29T04:20:50;6.95;84.68
69393;SHT31;56582;44.624;20.378;2023-12-29T04:23:15;7.02;84.04
69393;SHT31;56582;44.624;20.378;2023-12-29T04:25:41;7.02;84.10
69393;SHT31;56582;44.624;20.378;2023-12-29T04:28:07;7.02;83.82
69393;SHT31;56582;44.624;20.378;2023-12-29T04:30:34;7.09;83.67
69393;SHT31;56582;44.624;20.378;2023-12-29T04:32:59;7.12;83.67
69393;SHT31;56582;44.624;20.378;2023-12-29T04:35:25;7.02;83.68
69393;SHT31;56582;44.624;20.378;2023-12-29T04:37:51;7.30;88.11
69393;SHT31;56582;44.624;20.378;2023-12-29T04:40:16;7.68;89.30
69393;SHT31;56582;44.624;20.378;2023-12-29T04:42:42;7.65;83.80
69393;SHT31;56582;44.624;20.378;2023-12-29T04:45:08;7.65;82.74
69393;SHT31;56582;44.624;20.378;2023-12-29T04:47:33;7.70;82.60
69393;SHT31;56582;44.624;20.378;2023-12-29T04:49:59;7.60;82.60
69393;SHT31;56582;44.624;20.378;2023-12-29T04:52:24;7.57;82.80
69393;SHT31;56582;44.624;20.378;2023-12-29T04:54:50;7.61;82.71
69393;SHT31;56582;44.624;20.378;2023-12-29T04:57:15;7.48;84.55
69393;SHT31;56582;44.624;20.378;2023-12-29T04:59:41;7.40;84.50
69393;SHT31;56582;44.624;20.378;2023-12-29T05:02:06;7.86;93.20
69393;SHT31;56582;44.624;20.378;2023-12-29T05:04:32;8.32;96.08
69393;SHT31;56582;44.624;20.378;2023-12-29T05:06:58;8.94;96.95
69393;SHT31;56582;44.624;20.378;2023-12-29T05:09:23;9.70;97.70
69393;SHT31;56582;44.624;20.378;2023-12-29T05:11:49;10.17;97.84
69393;SHT31;56582;44.624;20.378;2023-12-29T05:14:14;10.65;97.54
69393;SHT31;56582;44.624;20.378;2023-12-29T05:16:41;9.87;92.94
69393;SHT31;56582;44.624;20.378;2023-12-29T05:19:07;9.01;86.71
69393;SHT31;56582;44.624;20.378;2023-12-29T05:21:32;8.73;85.28
69393;SHT31;56582;44.624;20.378;2023-12-29T05:23:58;8.71;86.24
69393;SHT31;56582;44.624;20.378;2023-12-29T05:26:24;8.75;87.41
69393;SHT31;56582;44.624;20.378;2023-12-29T05:28:50;8.81;87.77
69393;SHT31;56582;44.624;20.378;2023-12-29T05:31:15;8.74;85.80
69393;SHT31;56582;44.624;20.378;2023-12-29T05:33:40;8.30;82.05
69393;SHT31;56582;44.624;20.378;2023-12-29T05:36:07;8.25;83.87
69393;SHT31;56582;44.624;20.378;2023-12-29T05:38:36;8.21;84.64
69393;SHT31;56582;44.624;20.378;2023-12-29T05:41:03;8.19;83.89
69393;SHT31;56582;44.624;20.378;2023-12-29T05:43:30;8.07;83.60
69393;SHT31;56582;44.624;20.378;2023-12-29T05:45:57;7.94;83.47
69393;SHT31;56582;44.624;20.378;2023-12-29T05:48:22;7.92;84.19
69393;SHT31;56582;44.624;20.378;2023-12-29T05:50:49;8.13;88.77
69393;SHT31;56582;44.624;20.378;2023-12-29T05:53:15;7.92;85.08
69393;SHT31;56582;44.624;20.378;2023-12-29T05:55:41;7.77;83.98
69393;SHT31;56582;44.624;20.378;2023-12-29T05:58:06;7.51;82.89
69393;SHT31;56582;44.624;20.378;2023-12-29T06:00:32;7.65;86.23
69393;SHT31;56582;44.624;20.378;2023-12-29T06:02:57;7.75;85.39
69393;SHT31;56582;44.624;20.378;2023-12-29T06:05:23;7.68;84.61
69393;SHT31;56582;44.624;20.378;2023-12-29T06:07:48;7.53;83.04
69393;SHT31;56582;44.624;20.378;2023-12-29T06:10:14;7.37;83.09
69393;SHT31;56582;44.624;20.378;2023-12-29T06:12:39;7.68;85.29
69393;SHT31;56582;44.624;20.378;2023-12-29T06:15:05;7.70;83.94
69393;SHT31;56582;44.624;20.378;2023-12-29T06:17:31;7.27;82.25
69393;SHT31;56582;44.624;20.378;2023-12-29T06:19:57;7.00;83.31
69393;SHT31;56582;44.624;20.378;2023-12-29T06:22:23;6.95;83.60
69393;SHT31;56582;44.624;20.378;2023-12-29T06:24:48;6.91;84.20
69393;SHT31;56582;44.624;20.378;2023-12-29T06:27:14;7.00;84.86
69393;SHT31;56582;44.624;20.378;2023-12-29T06:29:41;7.17;84.93
69393;SHT31;56582;44.624;20.378;2023-12-29T06:32:07;7.43;85.72
69393;SHT31;56582;44.624;20.378;2023-12-29T06:34:33;7.42;83.56
69393;SHT31;56582;44.624;20.378;2023-12-29T06:36:58;7.23;83.81
69393;SHT31;56582;44.624;20.378;2023-12-29T06:39:24;7.31;83.79
69393;SHT31;56582;44.624;20.378;2023-12-29T06:41:49;7.33;84.21
69393;SHT31;56582;44.624;20.378;2023-12-29T06:44:15;7.40;84.40
69393;SHT31;56582;44.624;20.378;2023-12-29T06:46:40;7.22;83.39
69393;SHT31;56582;44.624;20.378;2023-12-29T06:49:08;7.24;83.89
69393;SHT31;56582;44.624;20.378;2023-12-29T06:51:33;7.37;84.39
69393;SHT31;56582;44.624;20.378;2023-12-29T06:54:00;7.50;84.98
69393;SHT31;56582;44.624;20.378;2023-12-29T06:56:26;7.73;84.79
69393;SHT31;56582;44.624;20.378;2023-12-29T06:58:52;7.74;84.08
69393;SHT31;56582;44.624;20.378;2023-12-29T07:01:17;7.79;84.11
69393;SHT31;56582;44.624;20.378;2023-12-29T07:03:43;7.73;83.40
69393;SHT31;56582;44.624;20.378;2023-12-29T07:06:10;7.79;83.31
69393;SHT31;56582;44.624;20.378;2023-12-29T07:08:35;7.85;83.64
69393;SHT31;56582;44.624;20.378;2023-12-29T07:11:01;7.84;83.63
69393;SHT31;56582;44.624;20.378;2023-12-29T07:13:26;8.09;83.76
69393;SHT31;56582;44.624;20.378;2023-12-29T07:15:52;8.32;83.21
69393;SHT31;56582;44.624;20.378;2023-12-29T07:18:17;8.33;82.35
69393;SHT31;56582;44.624;20.378;2023-12-29T07:20:43;8.36;81.65
69393;SHT31;56582;44.624;20.378;2023-12-29T07:23:08;8.32;81.56
69393;SHT31;56582;44.624;20.378;2023-12-29T07:25:34;8.39;81.87
69393;SHT31;56582;44.624;20.378;2023-12-29T07:27:59;8.60;81.03
69393;SHT31;56582;44.624;20.378;2023-12-29T07:30:25;8.15;80.92
69393;SHT31;56582;44.624;20.378;2023-12-29T07:32:51;8.34;81.93
69393;SHT31;56582;44.624;20.378;2023-12-29T07:35:17;8.61;80.71
69393;SHT31;56582;44.624;20.378;2023-12-29T07:37:45;8.54;80.39
69393;SHT31;56582;44.624;20.378;2023-12-29T07:40:11;8.63;80.77
69393;SHT31;56582;44.624;20.378;2023-12-29T07:42:38;8.73;80.74
69393;SHT31;56582;44.624;20.378;2023-12-29T07:45:04;8.64;80.69
69393;SHT31;56582;44.624;20.378;2023-12-29T07:47:31;8.63;81.25
69393;SHT31;56582;44.624;20.378;2023-12-29T07:49:56;8.67;81.36
69393;SHT31;56582;44.624;20.378;2023-12-29T07:52:22;8.67;80.42
69393;SHT31;56582;44.624;20.378;2023-12-29T07:54:47;8.75;80.70
69393;SHT31;56582;44.624;20.378;2023-12-29T07:57:14;8.80;81.50
69393;SHT31;56582;44.624;20.378;2023-12-29T07:59:39;8.71;81.54
69393;SHT31;56582;44.624;20.378;2023-12-29T08:02:05;9.07;80.51
69393;SHT31;56582;44.624;20.378;2023-12-29T08:04:31;9.14;80.18
69393;SHT31;56582;44.624;20.378;2023-12-29T08:06:56;9.23;80.58
69393;SHT31;56582;44.624;20.378;2023-12-29T08:09:22;9.22;80.79
69393;SHT31;56582;44.624;20.378;2023-12-29T08:11:49;9.25;80.56
69393;SHT31;56582;44.624;20.378;2023-12-29T08:14:14;9.39;80.42
69393;SHT31;56582;44.624;20.378;2023-12-29T08:16:40;9.43;79.98
69393;SHT31;56582;44.624;20.378;2023-12-29T08:19:06;9.43;79.57
69393;SHT31;56582;44.624;20.378;2023-12-29T08:21:32;9.47;79.80
69393;SHT31;56582;44.624;20.378;2023-12-29T08:23:58;9.50;79.15
69393;SHT31;56582;44.624;20.378;2023-12-29T08:26:24;9.70;78.00
69393;SHT31;56582;44.624;20.378;2023-12-29T08:28:49;9.76;77.80
69393;SHT31;56582;44.624;20.378;2023-12-29T08:31:15;9.67;78.05
69393;SHT31;56582;44.624;20.378;2023-12-29T08:33:41;9.71;77.43
69393;SHT31;56582;44.624;20.378;2023-12-29T08:36:07;9.66;77.84
69393;SHT31;56582;44.624;20.378;2023-12-29T08:38:33;9.64;78.35
69393;SHT31;56582;44.624;20.378;2023-12-29T08:40:59;9.69;76.98
69393;SHT31;56582;44.624;20.378;2023-12-29T08:43:25;9.71;77.70
69393;SHT31;56582;44.624;20.378;2023-12-29T08:45:54;9.59;77.37
69393;SHT31;56582;44.624;20.378;2023-12-29T08:48:19;9.50;77.81
69393;SHT31;56582;44.624;20.378;2023-12-29T08:50:45;9.57;77.69
69393;SHT31;56582;44.624;20.378;2023-12-29T08:53:11;9.64;77.63
69393;SHT31;56582;44.624;20.378;2023-12-29T08:55:36;9.47;77.30
69393;SHT31;56582;44.624;20.378;2023-12-29T08:58:02;9.60;78.30
69393;SHT31;56582;44.624;20.378;2023-12-29T09:00:27;9.63;78.33
69393;SHT31;56582;44.624;20.378;2023-12-29T09:02:56;9.87;77.05
69393;SHT31;56582;44.624;20.378;2023-12-29T09:05:21;9.98;77.38
69393;SHT31;56582;44.624;20.378;2023-12-29T09:07:47;10.07;77.17
69393;SHT31;56582;44.624;20.378;2023-12-29T09:10:12;10.05;77.11
69393;SHT31;56582;44.624;20.378;2023-12-29T09:12:38;10.29;76.88
69393;SHT31;56582;44.624;20.378;2023-12-29T09:15:05;10.38;76.88
69393;SHT31;56582;44.624;20.378;2023-12-29T09:17:31;10.72;76.46
69393;SHT31;56582;44.624;20.378;2023-12-29T09:19:56;10.81;76.02
69393;SHT31;56582;44.624;20.378;2023-12-29T09:22:22;10.72;76.57
69393;SHT31;56582;44.624;20.378;2023-12-29T09:24:47;10.92;76.40
69393;SHT31;56582;44.624;20.378;2023-12-29T09:27:13;10.84;75.79
69393;SHT31;56582;44.624;20.378;2023-12-29T09:29:39;10.97;75.80
69393;SHT31;56582;44.624;20.378;2023-12-29T09:32:05;11.10;75.93
69393;SHT31;56582;44.624;20.378;2023-12-29T09:34:31;11.08;75.73
69393;SHT31;56582;44.624;20.378;2023-12-29T09:36:56;11.24;75.39
69393;SHT31;56582;44.624;20.378;2023-12-29T09:39:22;11.39;74.38
69393;SHT31;56582;44.624;20.378;2023-12-29T09:41:51;11.37;74.54
69393;SHT31;56582;44.624;20.378;2023-12-29T09:44:20;11.51;74.26
69393;SHT31;56582;44.624;20.378;2023-12-29T09:46:49;11.46;74.56
69393;SHT31;56582;44.624;20.378;2023-12-29T09:49:16;11.57;73.96
69393;SHT31;56582;44.624;20.378;2023-12-29T09:51:44;11.50;73.93
69393;SHT31;56582;44.624;20.378;2023-12-29T09:54:10;11.46;74.55
69393;SHT31;56582;44.624;20.378;2023-12-29T09:56:37;11.25;74.57
69393;SHT31;56582;44.624;20.378;2023-12-29T09:59:03;11.13;75.23
69393;SHT31;56582;44.624;20.378;2023-12-29T10:01:29;11.25;74.61
69393;SHT31;56582;44.624;20.378;2023-12-29T10:03:56;11.10;75.52
69393;SHT31;56582;44.624;20.378;2023-12-29T10:06:24;11.21;75.30
69393;SHT31;56582;44.624;20.378;2023-12-29T10:08:50;11.31;74.71
69393;SHT31;56582;44.624;20.378;2023-12-29T10:11:22;11.55;73.42
69393;SHT31;56582;44.624;20.378;2023-12-29T10:13:54;11.64;73.73
69393;SHT31;56582;44.624;20.378;2023-12-29T10:21:29;11.69;74.19
69393;SHT31;56582;44.624;20.378;2023-12-29T10:23:57;11.82;73.91
69393;SHT31;56582;44.624;20.378;2023-12-29T10:26:23;11.95;73.60
69393;SHT31;56582;44.624;20.378;2023-12-29T10:28:50;11.93;73.32
69393;SHT31;56582;44.624;20.378;2023-12-29T10:31:16;12.16;73.17
69393;SHT31;56582;44.624;20.378;2023-12-29T10:33:48;12.13;73.03
69393;SHT31;56582;44.624;20.378;2023-12-29T10:36:16;12.33;73.10
69393;SHT31;56582;44.624;20.378;2023-12-29T10:38:45;12.45;73.03
69393;SHT31;56582;44.624;20.378;2023-12-29T10:41:15;12.61;72.49
69393;SHT31;56582;44.624;20.378;2023-12-29T10:43:42;12.58;72.41
69393;SHT31;56582;44.624;20.378;2023-12-29T10:46:10;12.61;72.05
69393;SHT31;56582;44.624;20.378;2023-12-29T10:48:42;12.74;71.35
69393;SHT31;56582;44.624;20.378;2023-12-29T10:51:07;12.72;71.83
69393;SHT31;56582;44.624;20.378;2023-12-29T10:53:35;12.75;71.64
69393;SHT31;56582;44.624;20.378;2023-12-29T10:56:01;12.69;71.29
69393;SHT31;56582;44.624;20.378;2023-12-29T10:58:27;12.74;71.33
69393;SHT31;56582;44.624;20.378;2023-12-29T11:00:58;12.67;70.88
69393;SHT31;56582;44.624;20.378;2023-12-29T11:03:25;12.74;71.42
69393;SHT31;56582;44.624;20.378;2023-12-29T11:05:58;12.75;70.96
69393;SHT31;56582;44.624;20.378;2023-12-29T11:08:25;12.99;69.66
69393;SHT31;56582;44.624;20.378;2023-12-29T11:10:51;12.89;70.16
69393;SHT31;56582;44.624;20.378;2023-12-29T11:13:17;12.87;70.52
69393;SHT31;56582;44.624;20.378;2023-12-29T11:15:46;12.84;69.71
69393;SHT31;56582;44.624;20.378;2023-12-29T11:18:16;12.88;70.03
69393;SHT31;56582;44.624;20.378;2023-12-29T11:20:43;12.82;70.23
69393;SHT31;56582;44.624;20.378;2023-12-29T11:23:10;12.98;69.51
69393;SHT31;56582;44.624;20.378;2023-12-29T11:25:36;13.06;68.98
69393;SHT31;56582;44.624;20.378;2023-12-29T11:28:03;13.05;69.01
69393;SHT31;56582;44.624;20.378;2023-12-29T11:30:28;13.06;68.89
69393;SHT31;56582;44.624;20.378;2023-12-29T11:33:14;13.20;68.83
69393;SHT31;56582;44.624;20.378;2023-12-29T11:35:51;13.16;69.18
69393;SHT31;56582;44.624;20.378;2023-12-29T11:41:00;13.23;69.54
69393;SHT31;56582;44.624;20.378;2023-12-29T11:43:27;13.42;67.67
69393;SHT31;56582;44.624;20.378;2023-12-29T11:45:53;13.30;67.72
69393;SHT31;56582;44.624;20.378;2023-12-29T11:48:56;13.43;67.37
69393;SHT31;56582;44.624;20.378;2023-12-29T11:51:34;13.44;67.52
69393;SHT31;56582;44.624;20.378;2023-12-29T11:54:00;13.53;67.50
69393;SHT31;56582;44.624;20.378;2023-12-29T11:59:20;13.51;67.40
69393;SHT31;56582;44.624;20.378;2023-12-29T12:01:47;13.47;66.41
69393;SHT31;56582;44.624;20.378;2023-12-29T12:07:13;13.54;66.95
69393;SHT31;56582;44.624;20.378;2023-12-29T12:09:40;13.51;66.46
69393;SHT31;56582;44.624;20.378;2023-12-29T12:12:05;13.67;66.23
69393;SHT31;56582;44.624;20.378;2023-12-29T12:17:30;13.61;66.74
69393;SHT31;56582;44.624;20.378;2023-12-29T12:20:01;13.69;66.36
69393;SHT31;56582;44.624;20.378;2023-12-29T12:22:30;13.81;66.00
69393;SHT31;56582;44.624;20.378;2023-12-29T12:24:58;13.64;66.93
69393;SHT31;56582;44.624;20.378;2023-12-29T12:27:25;13.51;67.48
69393;SHT31;56582;44.624;20.378;2023-12-29T12:30:01;13.74;65.51
69393;SHT31;56582;44.624;20.378;2023-12-29T12:32:27;13.90;65.56
69393;SHT31;56582;44.624;20.378;2023-12-29T12:34:53;13.82;64.57
69393;SHT31;56582;44.624;20.378;2023-12-29T12:37:23;13.81;65.02
69393;SHT31;56582;44.624;20.378;2023-12-29T12:39:49;13.84;64.85
69393;SHT31;56582;44.624;20.378;2023-12-29T12:42:16;13.78;65.80
69393;SHT31;56582;44.624;20.378;2023-12-29T12:44:53;13.87;64.75
69393;SHT31;56582;44.624;20.378;2023-12-29T12:47:25;14.00;64.73
69393;SHT31;56582;44.624;20.378;2023-12-29T12:49:52;13.69;65.03
69393;SHT31;56582;44.624;20.378;2023-12-29T12:52:18;13.70;65.14
69393;SHT31;56582;44.624;20.378;2023-12-29T12:54:43;13.75;65.13
69393;SHT31;56582;44.624;20.378;2023-12-29T12:57:09;13.90;64.61
69393;SHT31;56582;44.624;20.378;2023-12-29T12:59:35;13.88;64.57
69393;SHT31;56582;44.624;20.378;2023-12-29T13:02:02;13.84;64.73
69393;SHT31;56582;44.624;20.378;2023-12-29T13:04:28;13.94;64.54
69393;SHT31;56582;44.624;20.378;2023-12-29T13:06:53;14.00;63.81
69393;SHT31;56582;44.624;20.378;2023-12-29T13:09:19;13.95;64.16
69393;SHT31;56582;44.624;20.378;2023-12-29T13:11:45;13.94;62.99
69393;SHT31;56582;44.624;20.378;2023-12-29T13:14:23;13.87;63.82
69393;SHT31;56582;44.624;20.378;2023-12-29T13:16:48;13.97;63.30
69393;SHT31;56582;44.624;20.378;2023-12-29T13:19:20;13.97;63.19
69393;SHT31;56582;44.624;20.378;2023-12-29T13:21:47;13.84;62.87
69393;SHT31;56582;44.624;20.378;2023-12-29T13:24:13;13.95;63.04
69393;SHT31;56582;44.624;20.378;2023-12-29T13:26:41;13.81;63.51
69393;SHT31;56582;44.624;20.378;2023-12-29T13:29:08;13.74;62.49
69393;SHT31;56582;44.624;20.378;2023-12-29T13:31:34;13.75;62.26
69393;SHT31;56582;44.624;20.378;2023-12-29T13:34:06;13.74;61.65
69393;SHT31;56582;44.624;20.378;2023-12-29T13:36:47;13.59;62.06
69393;SHT31;56582;44.624;20.378;2023-12-29T13:39:30;13.60;62.22
69393;SHT31;56582;44.624;20.378;2023-12-29T13:41:58;13.56;63.30
69393;SHT31;56582;44.624;20.378;2023-12-29T13:44:26;13.67;63.71
69393;SHT31;56582;44.624;20.378;2023-12-29T13:46:54;13.71;63.39
69393;SHT31;56582;44.624;20.378;2023-12-29T13:49:20;13.54;62.56
69393;SHT31;56582;44.624;20.378;2023-12-29T13:51:45;13.46;62.76
69393;SHT31;56582;44.624;20.378;2023-12-29T13:54:11;13.50;64.18
69393;SHT31;56582;44.624;20.378;2023-12-29T13:56:38;13.60;62.60
69393;SHT31;56582;44.624;20.378;2023-12-29T13:59:04;13.71;62.89
69393;SHT31;56582;44.624;20.378;2023-12-29T14:01:36;13.56;62.09
69393;SHT31;56582;44.624;20.378;2023-12-29T14:04:03;13.59;63.40
69393;SHT31;56582;44.624;20.378;2023-12-29T14:06:50;13.61;62.49
69393;SHT31;56582;44.624;20.378;2023-12-29T14:09:16;13.67;62.82
69393;SHT31;56582;44.624;20.378;2023-12-29T14:11:49;13.71;64.33
69393;SHT31;56582;44.624;20.378;2023-12-29T14:14:24;13.74;64.74
69393;SHT31;56582;44.624;20.378;2023-12-29T14:16:51;13.82;64.40
69393;SHT31;56582;44.624;20.378;2023-12-29T14:19:17;13.81;63.80
69393;SHT31;56582;44.624;20.378;2023-12-29T14:21:43;13.81;63.63
69393;SHT31;56582;44.624;20.378;2023-12-29T14:24:16;13.78;63.87
69393;SHT31;56582;44.624;20.378;2023-12-29T14:26:43;13.84;64.80
69393;SHT31;56582;44.624;20.378;2023-12-29T14:29:19;13.84;62.87
69393;SHT31;56582;44.624;20.378;2023-12-29T14:31:46;13.80;63.53
69393;SHT31;56582;44.624;20.378;2023-12-29T14:34:13;13.84;64.69
69393;SHT31;56582;44.624;20.378;2023-12-29T14:36:42;13.80;63.04
69393;SHT31;56582;44.624;20.378;2023-12-29T14:39:08;13.70;63.66
69393;SHT31;56582;44.624;20.378;2023-12-29T14:41:35;13.75;65.20
69393;SHT31;56582;44.624;20.378;2023-12-29T14:44:01;13.80;64.97
69393;SHT31;56582;44.624;20.378;2023-12-29T14:46:27;13.78;64.63
69393;SHT31;56582;44.624;20.378;2023-12-29T14:48:53;13.87;65.05
69393;SHT31;56582;44.624;20.378;2023-12-29T14:51:19;13.90;65.25
69393;SHT31;56582;44.624;20.378;2023-12-29T14:53:48;13.91;65.08
69393;SHT31;56582;44.624;20.378;2023-12-29T14:56:32;14.01;63.82
69393;SHT31;56582;44.624;20.378;2023-12-29T14:59:01;13.94;63.74
69393;SHT31;56582;44.624;20.378;2023-12-29T15:01:27;13.92;64.38
69393;SHT31;56582;44.624;20.378;2023-12-29T15:03:52;14.00;63.80
69393;SHT31;56582;44.624;20.378;2023-12-29T15:06:18;13.98;64.59
69393;SHT31;56582;44.624;20.378;2023-12-29T15:08:43;14.05;63.05
69393;SHT31;56582;44.624;20.378;2023-12-29T15:11:09;13.92;63.91
69393;SHT31;56582;44.624;20.378;2023-12-29T15:13:34;13.88;64.67
69393;SHT31;56582;44.624;20.378;2023-12-29T15:16:01;13.85;65.11
69393;SHT31;56582;44.624;20.378;2023-12-29T15:18:27;13.77;64.08
69393;SHT31;56582;44.624;20.378;2023-12-29T15:20:55;13.73;65.24
69393;SHT31;56582;44.624;20.378;2023-12-29T15:23:21;13.49;62.89
69393;SHT31;56582;44.624;20.378;2023-12-29T15:25:48;13.56;64.11
69393;SHT31;56582;44.624;20.378;2023-12-29T15:28:15;13.36;64.00
69393;SHT31;56582;44.624;20.378;2023-12-29T15:30:42;13.03;63.81
69393;SHT31;56582;44.624;20.378;2023-12-29T15:33:08;13.05;64.16
69393;SHT31;56582;44.624;20.378;2023-12-29T15:35:33;12.99;66.51
69393;SHT31;56582;44.624;20.378;2023-12-29T15:37:59;13.18;68.73
69393;SHT31;56582;44.624;20.378;2023-12-29T15:40:24;13.32;68.62